sensor_id;sensor_type;location;lat;lon;timestamp;pressure;altitude;pressure_sealevel;temperature;humidity
25510;BME280;13413;52.336;21.200;2023-04-30T00:02:34;100213.44;;;12.72;55.27
25510;BME280;13413;52.336;21.200;2023-04-30T00:05:28;100210.09;;;12.72;55.32
25510;BME280;13413;52.336;21.200;2023-04-30T00:08:22;100212.05;;;12.76;55.40
25510;BME280;13413;52.336;21.200;2023-04-30T00:11:16;100216.05;;;12.78;55.50
25510;BME280;13413;52.336;21.200;2023-04-30T00:14:10;100216.60;;;12.78;55.38
25510;BME280;13413;52.336;21.200;2023-04-30T00:17:04;100221.09;;;12.87;55.43
25510;BME280;13413;52.336;21.200;2023-04-30T00:19:58;100220.65;;;12.91;55.36
25510;BME280;13413;52.336;21.200;2023-04-30T00:22:52;100217.85;;;12.88;55.61
25510;BME280;13413;52.336;21.200;2023-04-30T00:25:47;100218.28;;;12.80;55.72
25510;BME280;13413;52.336;21.200;2023-04-30T00:28:40;100218.75;;;12.78;55.85
25510;BME280;13413;52.336;21.200;2023-04-30T00:31:35;100216.08;;;12.75;56.14
25510;BME280;13413;52.336;21.200;2023-04-30T00:34:29;100219.75;;;12.73;56.22
25510;BME280;13413;52.336;21.200;2023-04-30T00:37:25;100218.19;;;12.77;56.19
25510;BME280;13413;52.336;21.200;2023-04-30T00:40:17;100223.95;;;12.81;56.24
25510;BME280;13413;52.336;21.200;2023-04-30T00:52:03;100227.88;;;12.90;56.58
25510;BME280;13413;52.336;21.200;2023-04-30T00:54:57;100231.99;;;12.88;56.52
25510;BME280;13413;52.336;21.200;2023-04-30T00:57:51;100230.97;;;12.90;56.63
25510;BME280;13413;52.336;21.200;2023-04-30T01:00:46;100231.39;;;12.94;56.73
25510;BME280;13413;52.336;21.200;2023-04-30T01:03:40;100232.60;;;12.97;56.83
25510;BME280;13413;52.336;21.200;2023-04-30T01:06:35;100229.79;;;13.01;56.84
25510;BME280;13413;52.336;21.200;2023-04-30T01:09:32;100230.44;;;13.06;56.81
25510;BME280;13413;52.336;21.200;2023-04-30T01:12:32;100231.89;;;13.09;57.04
25510;BME280;13413;52.336;21.200;2023-04-30T01:15:33;100233.06;;;13.06;56.97
25510;BME280;13413;52.336;21.200;2023-04-30T01:18:32;100232.77;;;13.10;57.15
25510;BME280;13413;52.336;21.200;2023-04-30T01:21:28;100233.38;;;13.09;57.17
25510;BME280;13413;52.336;21.200;2023-04-30T01:24:40;100230.27;;;13.10;57.37
25510;BME280;13413;52.336;21.200;2023-04-30T01:28:02;100231.95;;;12.95;57.61
25510;BME280;13413;52.336;21.200;2023-04-30T01:30:57;100235.25;;;12.98;57.77
25510;BME280;13413;52.336;21.200;2023-04-30T01:33:51;100233.34;;;13.04;57.75
25510;BME280;13413;52.336;21.200;2023-04-30T01:36:55;100237.46;;;13.08;57.63
25510;BME280;13413;52.336;21.200;2023-04-30T01:40:11;100236.54;;;13.13;57.67
25510;BME280;13413;52.336;21.200;2023-04-30T01:43:19;100241.86;;;13.13;57.87
25510;BME280;13413;52.336;21.200;2023-04-30T01:46:22;100241.64;;;13.12;57.99
25510;BME280;13413;52.336;21.200;2023-04-30T01:49:28;100244.16;;;13.10;58.13
25510;BME280;13413;52.336;21.200;2023-04-30T01:52:38;100247.34;;;13.09;58.21
25510;BME280;13413;52.336;21.200;2023-04-30T01:55:38;100243.34;;;13.05;58.29
25510;BME280;13413;52.336;21.200;2023-04-30T01:58:34;100250.88;;;13.07;58.37
25510;BME280;13413;52.336;21.200;2023-04-30T02:01:30;100252.98;;;13.06;58.45
25510;BME280;13413;52.336;21.200;2023-04-30T02:04:25;100251.98;;;13.07;58.53
25510;BME280;13413;52.336;21.200;2023-04-30T02:07:30;100252.58;;;13.04;58.60
25510;BME280;13413;52.336;21.200;2023-04-30T02:10:30;100252.67;;;13.04;58.63
25510;BME280;13413;52.336;21.200;2023-04-30T02:13:24;100250.58;;;13.04;58.70
25510;BME280;13413;52.336;21.200;2023-04-30T02:16:18;100255.02;;;13.07;58.73
25510;BME280;13413;52.336;21.200;2023-04-30T02:19:12;100257.98;;;13.07;58.66
25510;BME280;13413;52.336;21.200;2023-04-30T02:22:06;100255.06;;;13.11;58.75
25510;BME280;13413;52.336;21.200;2023-04-30T02:25:00;100257.11;;;13.14;58.91
25510;BME280;13413;52.336;21.200;2023-04-30T02:27:54;100260.63;;;13.13;58.94
25510;BME280;13413;52.336;21.200;2023-04-30T02:30:48;100262.60;;;13.13;59.04
25510;BME280;13413;52.336;21.200;2023-04-30T02:36:35;100263.02;;;13.08;59.34
25510;BME280;13413;52.336;21.200;2023-04-30T02:39:30;100267.50;;;13.09;59.43
25510;BME280;13413;52.336;21.200;2023-04-30T02:42:24;100272.37;;;13.09;59.45
25510;BME280;13413;52.336;21.200;2023-04-30T02:45:19;100278.05;;;13.07;59.68
25510;BME280;13413;52.336;21.200;2023-04-30T02:48:14;100281.23;;;13.07;59.89
25510;BME280;13413;52.336;21.200;2023-04-30T02:51:08;100281.27;;;13.10;60.11
25510;BME280;13413;52.336;21.200;2023-04-30T02:54:03;100281.06;;;13.12;60.85
25510;BME280;13413;52.336;21.200;2023-04-30T02:56:57;100281.38;;;13.15;61.98
25510;BME280;13413;52.336;21.200;2023-04-30T02:59:51;100287.17;;;13.17;62.81
25510;BME280;13413;52.336;21.200;2023-04-30T03:02:44;100290.13;;;13.18;63.05
25510;BME280;13413;52.336;21.200;2023-04-30T03:11:21;100298.04;;;13.23;63.79
25510;BME280;13413;52.336;21.200;2023-04-30T03:14:15;100301.39;;;13.23;64.18
25510;BME280;13413;52.336;21.200;2023-04-30T03:17:08;100308.13;;;13.25;63.86
25510;BME280;13413;52.336;21.200;2023-04-30T03:20:01;100309.59;;;13.24;64.28
25510;BME280;13413;52.336;21.200;2023-04-30T03:22:56;100313.64;;;13.23;64.04
25510;BME280;13413;52.336;21.200;2023-04-30T03:25:50;100316.14;;;13.23;64.63
25510;BME280;13413;52.336;21.200;2023-04-30T03:28:46;100320.38;;;13.22;64.54
25510;BME280;13413;52.336;21.200;2023-04-30T03:31:40;100323.64;;;13.23;64.48
25510;BME280;13413;52.336;21.200;2023-04-30T03:34:34;100329.73;;;13.25;64.39
25510;BME280;13413;52.336;21.200;2023-04-30T03:37:28;100330.94;;;13.27;64.87
25510;BME280;13413;52.336;21.200;2023-04-30T03:40:22;100335.60;;;13.27;65.02
25510;BME280;13413;52.336;21.200;2023-04-30T03:43:16;100347.84;;;13.25;65.22
25510;BME280;13413;52.336;21.200;2023-04-30T03:46:10;100355.92;;;13.22;65.24
25510;BME280;13413;52.336;21.200;2023-04-30T03:49:04;100362.56;;;13.17;64.63
25510;BME280;13413;52.336;21.200;2023-04-30T03:51:58;100369.98;;;13.10;64.19
25510;BME280;13413;52.336;21.200;2023-04-30T03:54:52;100374.06;;;13.06;63.87
25510;BME280;13413;52.336;21.200;2023-04-30T03:57:46;100379.05;;;13.03;63.83
25510;BME280;13413;52.336;21.200;2023-04-30T04:00:41;100384.75;;;13.00;63.40
25510;BME280;13413;52.336;21.200;2023-04-30T04:03:35;100389.17;;;12.96;63.04
25510;BME280;13413;52.336;21.200;2023-04-30T04:06:30;100393.87;;;12.90;62.89
25510;BME280;13413;52.336;21.200;2023-04-30T04:09:24;100396.88;;;12.88;62.71
25510;BME280;13413;52.336;21.200;2023-04-30T04:12:18;100405.12;;;12.85;62.39
25510;BME280;13413;52.336;21.200;2023-04-30T04:15:12;100408.94;;;12.78;61.94
25510;BME280;13413;52.336;21.200;2023-04-30T04:18:06;100412.63;;;12.67;61.56
25510;BME280;13413;52.336;21.200;2023-04-30T04:21:00;100419.31;;;12.62;61.44
25510;BME280;13413;52.336;21.200;2023-04-30T04:23:54;100416.00;;;12.55;61.33
25510;BME280;13413;52.336;21.200;2023-04-30T04:26:48;100422.57;;;12.49;61.41
25510;BME280;13413;52.336;21.200;2023-04-30T04:29:42;100419.11;;;12.46;61.50
25510;BME280;13413;52.336;21.200;2023-04-30T04:32:36;100425.79;;;12.45;61.54
25510;BME280;13413;52.336;21.200;2023-04-30T04:35:30;100436.11;;;12.43;61.69
25510;BME280;13413;52.336;21.200;2023-04-30T04:38:24;100446.45;;;12.38;61.78
25510;BME280;13413;52.336;21.200;2023-04-30T04:41:18;100447.42;;;12.29;62.02
25510;BME280;13413;52.336;21.200;2023-04-30T04:44:12;100448.80;;;12.25;62.31
25510;BME280;13413;52.336;21.200;2023-04-30T04:50:16;100461.17;;;12.20;62.29
25510;BME280;13413;52.336;21.200;2023-04-30T04:53:10;100461.33;;;12.17;62.07
25510;BME280;13413;52.336;21.200;2023-04-30T04:56:05;100469.90;;;12.16;62.23
25510;BME280;13413;52.336;21.200;2023-04-30T04:58:58;100471.17;;;12.16;61.93
25510;BME280;13413;52.336;21.200;2023-04-30T05:01:52;100479.66;;;12.15;61.72
25510;BME280;13413;52.336;21.200;2023-04-30T05:04:46;100484.57;;;12.17;61.75
25510;BME280;13413;52.336;21.200;2023-04-30T05:07:41;100486.26;;;12.20;61.59
25510;BME280;13413;52.336;21.200;2023-04-30T05:10:33;100490.05;;;12.21;61.40
25510;BME280;13413;52.336;21.200;2023-04-30T05:13:28;100494.46;;;12.19;61.37
25510;BME280;13413;52.336;21.200;2023-04-30T05:16:22;100499.19;;;12.18;61.27
25510;BME280;13413;52.336;21.200;2023-04-30T05:19:16;100503.70;;;12.21;61.36
25510;BME280;13413;52.336;21.200;2023-04-30T05:22:10;100504.22;;;12.26;61.24
25510;BME280;13413;52.336;21.200;2023-04-30T05:32:25;100524.95;;;12.33;61.30
25510;BME280;13413;52.336;21.200;2023-04-30T05:35:20;100530.05;;;12.35;61.17
25510;BME280;13413;52.336;21.200;2023-04-30T05:38:14;100531.24;;;12.35;61.19
25510;BME280;13413;52.336;21.200;2023-04-30T05:41:09;100533.27;;;12.39;61.35
25510;BME280;13413;52.336;21.200;2023-04-30T05:44:04;100539.14;;;12.41;61.06
25510;BME280;13413;52.336;21.200;2023-04-30T05:46:57;100539.95;;;12.40;61.14
25510;BME280;13413;52.336;21.200;2023-04-30T05:49:52;100543.52;;;12.41;61.08
25510;BME280;13413;52.336;21.200;2023-04-30T05:52:46;100546.83;;;12.41;61.14
25510;BME280;13413;52.336;21.200;2023-04-30T05:55:40;100551.32;;;12.43;61.06
25510;BME280;13413;52.336;21.200;2023-04-30T05:58:34;100553.83;;;12.44;60.74
25510;BME280;13413;52.336;21.200;2023-04-30T06:01:28;100560.89;;;12.42;60.73
25510;BME280;13413;52.336;21.200;2023-04-30T06:04:21;100565.34;;;12.47;60.55
25510;BME280;13413;52.336;21.200;2023-04-30T06:07:16;100561.17;;;12.48;60.36
25510;BME280;13413;52.336;21.200;2023-04-30T06:10:11;100568.65;;;12.53;60.18
25510;BME280;13413;52.336;21.200;2023-04-30T06:13:03;100571.78;;;12.60;60.19
25510;BME280;13413;52.336;21.200;2023-04-30T06:15:58;100575.80;;;12.69;59.97
25510;BME280;13413;52.336;21.200;2023-04-30T06:18:52;100582.15;;;12.71;59.43
25510;BME280;13413;52.336;21.200;2023-04-30T06:21:46;100585.92;;;12.66;58.80
25510;BME280;13413;52.336;21.200;2023-04-30T06:24:39;100586.19;;;12.60;58.39
25510;BME280;13413;52.336;21.200;2023-04-30T06:27:34;100590.05;;;12.61;58.53
25510;BME280;13413;52.336;21.200;2023-04-30T06:30:30;100591.42;;;12.67;58.14
25510;BME280;13413;52.336;21.200;2023-04-30T06:33:25;100588.26;;;12.80;58.38
25510;BME280;13413;52.336;21.200;2023-04-30T06:36:19;100588.45;;;12.96;58.27
25510;BME280;13413;52.336;21.200;2023-04-30T06:39:14;100597.98;;;13.04;56.76
25510;BME280;13413;52.336;21.200;2023-04-30T06:42:09;100592.70;;;13.01;56.53
25510;BME280;13413;52.336;21.200;2023-04-30T06:45:03;100591.85;;;13.02;55.99
25510;BME280;13413;52.336;21.200;2023-04-30T06:47:57;100593.85;;;13.05;55.37
25510;BME280;13413;52.336;21.200;2023-04-30T06:50:52;100589.60;;;13.06;54.49
25510;BME280;13413;52.336;21.200;2023-04-30T06:53:46;100587.50;;;13.10;55.07
25510;BME280;13413;52.336;21.200;2023-04-30T06:56:40;100590.67;;;13.16;54.44
25510;BME280;13413;52.336;21.200;2023-04-30T06:59:34;100591.86;;;13.29;54.40
25510;BME280;13413;52.336;21.200;2023-04-30T07:02:30;100588.67;;;13.38;53.75
25510;BME280;13413;52.336;21.200;2023-04-30T07:05:24;100591.45;;;13.47;53.52
25510;BME280;13413;52.336;21.200;2023-04-30T07:08:18;100594.21;;;13.56;53.58
25510;BME280;13413;52.336;21.200;2023-04-30T07:11:12;100598.14;;;13.56;53.30
25510;BME280;13413;52.336;21.200;2023-04-30T07:14:06;100602.36;;;13.60;52.24
25510;BME280;13413;52.336;21.200;2023-04-30T07:17:00;100605.90;;;13.58;52.25
25510;BME280;13413;52.336;21.200;2023-04-30T07:19:54;100613.39;;;13.64;52.09
25510;BME280;13413;52.336;21.200;2023-04-30T07:22:48;100617.13;;;13.64;51.38
25510;BME280;13413;52.336;21.200;2023-04-30T07:25:41;100613.77;;;13.68;51.99
25510;BME280;13413;52.336;21.200;2023-04-30T07:28:35;100616.25;;;13.78;51.92
25510;BME280;13413;52.336;21.200;2023-04-30T07:31:29;100617.80;;;13.77;51.49
25510;BME280;13413;52.336;21.200;2023-04-30T07:34:24;100620.29;;;13.75;51.79
25510;BME280;13413;52.336;21.200;2023-04-30T07:37:18;100618.93;;;13.79;51.67
25510;BME280;13413;52.336;21.200;2023-04-30T07:40:13;100623.39;;;13.82;52.05
25510;BME280;13413;52.336;21.200;2023-04-30T07:43:05;100618.95;;;13.84;51.95
25510;BME280;13413;52.336;21.200;2023-04-30T07:48:41;100620.96;;;13.93;51.20
25510;BME280;13413;52.336;21.200;2023-04-30T07:54:31;100630.39;;;14.01;49.93
25510;BME280;13413;52.336;21.200;2023-04-30T07:57:25;100633.97;;;14.07;49.58
25510;BME280;13413;52.336;21.200;2023-04-30T08:00:19;100635.38;;;14.04;48.06
25510;BME280;13413;52.336;21.200;2023-04-30T08:03:16;100629.52;;;13.95;47.36
25510;BME280;13413;52.336;21.200;2023-04-30T08:06:09;100637.04;;;14.01;46.49
25510;BME280;13413;52.336;21.200;2023-04-30T08:09:03;100640.08;;;14.10;46.57
25510;BME280;13413;52.336;21.200;2023-04-30T08:11:57;100645.63;;;14.30;47.12
25510;BME280;13413;52.336;21.200;2023-04-30T08:15:00;100644.92;;;14.45;47.12
25510;BME280;13413;52.336;21.200;2023-04-30T08:17:53;100639.23;;;14.62;47.31
25510;BME280;13413;52.336;21.200;2023-04-30T08:20:47;100643.52;;;14.71;47.14
25510;BME280;13413;52.336;21.200;2023-04-30T08:26:35;100639.50;;;14.86;47.20
25510;BME280;13413;52.336;21.200;2023-04-30T08:29:29;100647.96;;;15.06;46.87
25510;BME280;13413;52.336;21.200;2023-04-30T08:32:23;100644.84;;;15.24;46.75
25510;BME280;13413;52.336;21.200;2023-04-30T08:35:17;100647.30;;;15.42;46.27
25510;BME280;13413;52.336;21.200;2023-04-30T08:38:12;100650.02;;;15.50;45.85
25510;BME280;13413;52.336;21.200;2023-04-30T08:41:10;100651.41;;;15.64;45.57
25510;BME280;13413;52.336;21.200;2023-04-30T08:44:04;100659.19;;;15.70;44.62
25510;BME280;13413;52.336;21.200;2023-04-30T08:46:59;100660.08;;;15.77;44.67
25510;BME280;13413;52.336;21.200;2023-04-30T08:49:54;100664.55;;;15.86;43.85
25510;BME280;13413;52.336;21.200;2023-04-30T08:52:48;100663.59;;;15.86;43.75
25510;BME280;13413;52.336;21.200;2023-04-30T08:55:42;100663.97;;;15.86;43.60
25510;BME280;13413;52.336;21.200;2023-04-30T08:58:36;100665.11;;;15.99;44.19
25510;BME280;13413;52.336;21.200;2023-04-30T09:01:30;100669.59;;;16.19;43.64
25510;BME280;13413;52.336;21.200;2023-04-30T09:04:24;100678.73;;;16.31;43.32
25510;BME280;13413;52.336;21.200;2023-04-30T09:07:18;100674.17;;;16.34;43.17
25510;BME280;13413;52.336;21.200;2023-04-30T09:10:14;100674.27;;;16.49;42.93
25510;BME280;13413;52.336;21.200;2023-04-30T09:13:09;100679.48;;;16.71;42.87
25510;BME280;13413;52.336;21.200;2023-04-30T09:16:04;100682.92;;;16.91;41.94
25510;BME280;13413;52.336;21.200;2023-04-30T09:18:58;100683.77;;;16.93;41.60
25510;BME280;13413;52.336;21.200;2023-04-30T09:21:53;100688.35;;;17.03;40.81
25510;BME280;13413;52.336;21.200;2023-04-30T09:24:48;100688.45;;;17.09;40.28
25510;BME280;13413;52.336;21.200;2023-04-30T09:27:43;100693.77;;;17.31;41.02
25510;BME280;13413;52.336;21.200;2023-04-30T09:30:38;100699.78;;;17.57;39.61
25510;BME280;13413;52.336;21.200;2023-04-30T09:33:45;100701.70;;;17.59;38.91
25510;BME280;13413;52.336;21.200;2023-04-30T09:36:52;100707.95;;;17.52;38.08
25510;BME280;13413;52.336;21.200;2023-04-30T09:40:04;100703.27;;;17.62;37.74
25510;BME280;13413;52.336;21.200;2023-04-30T09:43:01;100713.89;;;17.64;36.37
25510;BME280;13413;52.336;21.200;2023-04-30T09:45:58;100709.20;;;17.76;36.62
25510;BME280;13413;52.336;21.200;2023-04-30T09:48:57;100714.63;;;17.98;36.58
25510;BME280;13413;52.336;21.200;2023-04-30T09:51:58;100721.17;;;18.30;36.12
25510;BME280;13413;52.336;21.200;2023-04-30T09:54:51;100717.06;;;18.43;35.47
25510;BME280;13413;52.336;21.200;2023-04-30T09:57:46;100714.44;;;18.34;35.52
25510;BME280;13413;52.336;21.200;2023-04-30T10:00:39;100716.70;;;18.43;35.02
25510;BME280;13413;52.336;21.200;2023-04-30T10:09:06;100715.69;;;18.66;34.03
25510;BME280;13413;52.336;21.200;2023-04-30T10:12:00;100709.86;;;18.74;33.98
25510;BME280;13413;52.336;21.200;2023-04-30T10:14:56;100714.38;;;19.01;34.07
25510;BME280;13413;52.336;21.200;2023-04-30T10:18:12;100717.09;;;19.26;33.95
25510;BME280;13413;52.336;21.200;2023-04-30T10:21:09;100714.18;;;19.53;33.41
25510;BME280;13413;52.336;21.200;2023-04-30T10:24:07;100707.58;;;19.75;33.50
25510;BME280;13413;52.336;21.200;2023-04-30T10:26:58;100713.73;;;19.97;33.25
25510;BME280;13413;52.336;21.200;2023-04-30T10:29:54;100711.13;;;19.72;32.65
25510;BME280;13413;52.336;21.200;2023-04-30T10:32:54;100712.84;;;19.67;32.17
25510;BME280;13413;52.336;21.200;2023-04-30T10:35:55;100712.47;;;19.79;33.02
25510;BME280;13413;52.336;21.200;2023-04-30T10:38:50;100718.36;;;20.09;32.23
25510;BME280;13413;52.336;21.200;2023-04-30T10:41:46;100717.09;;;20.20;31.93
25510;BME280;13413;52.336;21.200;2023-04-30T10:44:40;100717.04;;;20.06;31.40
25510;BME280;13413;52.336;21.200;2023-04-30T10:47:34;100710.69;;;19.95;31.97
25510;BME280;13413;52.336;21.200;2023-04-30T10:50:29;100712.54;;;19.99;31.70
25510;BME280;13413;52.336;21.200;2023-04-30T10:53:24;100714.02;;;20.03;31.94
25510;BME280;13413;52.336;21.200;2023-04-30T10:56:31;100702.86;;;20.15;32.02
25510;BME280;13413;52.336;21.200;2023-04-30T10:59:28;100707.71;;;20.12;30.94
25510;BME280;13413;52.336;21.200;2023-04-30T11:02:22;100708.27;;;20.03;31.21
25510;BME280;13413;52.336;21.200;2023-04-30T11:05:36;100722.73;;;20.16;30.18
25510;BME280;13413;52.336;21.200;2023-04-30T11:08:35;100714.27;;;19.97;30.47
25510;BME280;13413;52.336;21.200;2023-04-30T11:11:34;100711.73;;;20.10;31.16
25510;BME280;13413;52.336;21.200;2023-04-30T11:14:30;100714.37;;;20.43;30.98
25510;BME280;13413;52.336;21.200;2023-04-30T11:17:25;100719.30;;;20.57;30.56
25510;BME280;13413;52.336;21.200;2023-04-30T11:20:23;100727.70;;;20.50;30.33
25510;BME280;13413;52.336;21.200;2023-04-30T11:23:22;100727.34;;;20.28;30.15
25510;BME280;13413;52.336;21.200;2023-04-30T11:26:17;100721.08;;;20.19;30.18
25510;BME280;13413;52.336;21.200;2023-04-30T11:29:14;100721.25;;;20.32;29.86
25510;BME280;13413;52.336;21.200;2023-04-30T11:32:08;100732.71;;;20.36;29.16
25510;BME280;13413;52.336;21.200;2023-04-30T11:35:03;100728.30;;;20.09;28.94
25510;BME280;13413;52.336;21.200;2023-04-30T11:37:58;100727.77;;;19.83;29.19
25510;BME280;13413;52.336;21.200;2023-04-30T11:40:53;100726.73;;;20.04;29.85
25510;BME280;13413;52.336;21.200;2023-04-30T11:43:47;100733.33;;;20.10;29.27
25510;BME280;13413;52.336;21.200;2023-04-30T11:46:42;100731.61;;;20.01;29.22
25510;BME280;13413;52.336;21.200;2023-04-30T11:49:35;100733.66;;;19.74;28.42
25510;BME280;13413;52.336;21.200;2023-04-30T11:52:30;100743.30;;;19.78;29.45
25510;BME280;13413;52.336;21.200;2023-04-30T11:55:26;100737.30;;;20.09;29.94
25510;BME280;13413;52.336;21.200;2023-04-30T11:58:20;100736.19;;;20.40;29.63
25510;BME280;13413;52.336;21.200;2023-04-30T12:01:15;100739.45;;;20.54;28.76
25510;BME280;13413;52.336;21.200;2023-04-30T12:04:10;100740.95;;;20.54;28.81
25510;BME280;13413;52.336;21.200;2023-04-30T12:07:06;100742.10;;;20.32;28.86
25510;BME280;13413;52.336;21.200;2023-04-30T12:10:00;100753.17;;;20.31;29.20
25510;BME280;13413;52.336;21.200;2023-04-30T12:12:53;100746.80;;;20.23;29.29
25510;BME280;13413;52.336;21.200;2023-04-30T12:15:59;100741.12;;;20.34;29.56
25510;BME280;13413;52.336;21.200;2023-04-30T12:18:52;100743.52;;;20.28;29.23
25510;BME280;13413;52.336;21.200;2023-04-30T12:21:44;100745.61;;;20.01;29.19
25510;BME280;13413;52.336;21.200;2023-04-30T12:32:05;100750.19;;;20.13;29.68
25510;BME280;13413;52.336;21.200;2023-04-30T12:35:01;100746.60;;;20.14;29.29
25510;BME280;13413;52.336;21.200;2023-04-30T12:38:03;100738.08;;;19.88;29.36
25510;BME280;13413;52.336;21.200;2023-04-30T12:40:57;100742.10;;;19.78;28.35
25510;BME280;13413;52.336;21.200;2023-04-30T12:43:56;100750.81;;;19.27;28.46
25510;BME280;13413;52.336;21.200;2023-04-30T12:47:09;100749.74;;;19.06;28.71
25510;BME280;13413;52.336;21.200;2023-04-30T12:50:03;100752.04;;;19.07;29.19
25510;BME280;13413;52.336;21.200;2023-04-30T12:53:03;100746.66;;;19.24;29.34
25510;BME280;13413;52.336;21.200;2023-04-30T12:56:12;100739.33;;;19.28;29.21
25510;BME280;13413;52.336;21.200;2023-04-30T12:59:15;100739.64;;;19.23;29.13
25510;BME280;13413;52.336;21.200;2023-04-30T13:02:10;100747.16;;;19.28;29.20
25510;BME280;13413;52.336;21.200;2023-04-30T13:05:06;100741.96;;;19.30;29.46
25510;BME280;13413;52.336;21.200;2023-04-30T13:08:01;100747.07;;;19.36;29.31
25510;BME280;13413;52.336;21.200;2023-04-30T13:10:55;100743.72;;;19.32;29.39
25510;BME280;13413;52.336;21.200;2023-04-30T13:13:49;100741.95;;;19.31;29.29
25510;BME280;13413;52.336;21.200;2023-04-30T13:16:43;100733.38;;;19.31;29.21
25510;BME280;13413;52.336;21.200;2023-04-30T13:19:37;100732.17;;;19.20;28.73
25510;BME280;13413;52.336;21.200;2023-04-30T13:22:31;100731.16;;;18.79;28.54
25510;BME280;13413;52.336;21.200;2023-04-30T13:25:26;100720.95;;;18.49;28.74
25510;BME280;13413;52.336;21.200;2023-04-30T13:28:20;100729.01;;;18.58;29.11
25510;BME280;13413;52.336;21.200;2023-04-30T13:31:13;100729.55;;;18.60;29.16
25510;BME280;13413;52.336;21.200;2023-04-30T13:34:07;100738.05;;;18.52;29.21
25510;BME280;13413;52.336;21.200;2023-04-30T13:37:02;100742.77;;;18.52;29.37
25510;BME280;13413;52.336;21.200;2023-04-30T13:39:56;100740.10;;;18.57;29.34
25510;BME280;13413;52.336;21.200;2023-04-30T13:42:49;100737.83;;;18.64;29.39
25510;BME280;13413;52.336;21.200;2023-04-30T13:45:44;100743.06;;;18.65;29.04
25510;BME280;13413;52.336;21.200;2023-04-30T13:48:37;100740.80;;;18.68;29.35
25510;BME280;13413;52.336;21.200;2023-04-30T13:51:31;100736.98;;;18.75;29.56
25510;BME280;13413;52.336;21.200;2023-04-30T13:54:27;100733.41;;;18.82;29.83
25510;BME280;13413;52.336;21.200;2023-04-30T13:57:20;100739.45;;;18.91;29.60
25510;BME280;13413;52.336;21.200;2023-04-30T14:00:15;100728.36;;;18.73;29.74
25510;BME280;13413;52.336;21.200;2023-04-30T14:03:09;100733.43;;;18.65;29.93
25510;BME280;13413;52.336;21.200;2023-04-30T14:06:04;100732.37;;;18.72;30.18
25510;BME280;13413;52.336;21.200;2023-04-30T14:08:57;100736.84;;;18.72;29.68
25510;BME280;13413;52.336;21.200;2023-04-30T14:11:51;100741.02;;;18.68;29.74
25510;BME280;13413;52.336;21.200;2023-04-30T14:14:45;100744.67;;;18.65;29.35
25510;BME280;13413;52.336;21.200;2023-04-30T14:17:40;100740.01;;;18.51;29.83
25510;BME280;13413;52.336;21.200;2023-04-30T14:20:33;100734.96;;;18.53;29.92
25510;BME280;13413;52.336;21.200;2023-04-30T14:23:28;100738.61;;;18.62;29.66
25510;BME280;13413;52.336;21.200;2023-04-30T14:26:21;100743.48;;;18.53;28.70
25510;BME280;13413;52.336;21.200;2023-04-30T14:29:15;100737.65;;;18.18;28.38
25510;BME280;13413;52.336;21.200;2023-04-30T14:32:11;100738.05;;;18.06;28.88
25510;BME280;13413;52.336;21.200;2023-04-30T14:35:07;100733.52;;;17.92;28.36
25510;BME280;13413;52.336;21.200;2023-04-30T14:38:02;100736.20;;;17.88;28.85
25510;BME280;13413;52.336;21.200;2023-04-30T14:40:55;100737.79;;;17.82;29.00
25510;BME280;13413;52.336;21.200;2023-04-30T14:53:05;100738.35;;;17.96;28.79
25510;BME280;13413;52.336;21.200;2023-04-30T14:55:59;100740.35;;;17.83;28.79
25510;BME280;13413;52.336;21.200;2023-04-30T14:58:53;100739.70;;;17.70;29.11
25510;BME280;13413;52.336;21.200;2023-04-30T15:01:47;100744.58;;;17.70;29.35
25510;BME280;13413;52.336;21.200;2023-04-30T15:04:42;100742.48;;;17.78;29.58
25510;BME280;13413;52.336;21.200;2023-04-30T15:07:36;100742.44;;;17.95;29.93
25510;BME280;13413;52.336;21.200;2023-04-30T15:10:30;100739.96;;;18.02;29.40
25510;BME280;13413;52.336;21.200;2023-04-30T15:13:24;100739.91;;;17.90;29.83
25510;BME280;13413;52.336;21.200;2023-04-30T15:16:18;100740.59;;;18.02;29.66
25510;BME280;13413;52.336;21.200;2023-04-30T15:19:12;100749.39;;;18.08;29.26
25510;BME280;13413;52.336;21.200;2023-04-30T15:22:06;100748.98;;;18.14;29.67
25510;BME280;13413;52.336;21.200;2023-04-30T15:25:00;100750.15;;;18.13;29.57
25510;BME280;13413;52.336;21.200;2023-04-30T15:27:55;100747.85;;;18.09;29.93
25510;BME280;13413;52.336;21.200;2023-04-30T15:33:43;100750.79;;;17.93;29.87
25510;BME280;13413;52.336;21.200;2023-04-30T15:36:37;100751.81;;;17.96;30.23
25510;BME280;13413;52.336;21.200;2023-04-30T15:39:31;100745.20;;;18.03;30.10
25510;BME280;13413;52.336;21.200;2023-04-30T15:42:25;100751.84;;;18.06;30.14
25510;BME280;13413;52.336;21.200;2023-04-30T15:45:19;100747.55;;;18.04;29.84
25510;BME280;13413;52.336;21.200;2023-04-30T15:48:13;100749.34;;;18.02;30.09
25510;BME280;13413;52.336;21.200;2023-04-30T15:51:08;100754.82;;;18.05;30.14
25510;BME280;13413;52.336;21.200;2023-04-30T15:54:02;100753.49;;;18.07;30.20
25510;BME280;13413;52.336;21.200;2023-04-30T15:56:56;100756.61;;;18.02;30.31
25510;BME280;13413;52.336;21.200;2023-04-30T15:59:50;100761.95;;;18.00;30.12
25510;BME280;13413;52.336;21.200;2023-04-30T16:02:44;100761.29;;;17.90;30.26
25510;BME280;13413;52.336;21.200;2023-04-30T16:05:38;100760.09;;;17.89;30.23
25510;BME280;13413;52.336;21.200;2023-04-30T16:08:33;100757.96;;;17.88;30.33